sensor_id;sensor_type;location;lat;lon;timestamp;P1;durP1;ratioP1;P2;durP2;ratioP2
27113;SDS011;14648;49.730;8.614;2022-08-25T00:01:26;5.55;;;3.55;;
27113;SDS011;14648;49.730;8.614;2022-08-25T00:03:56;3.95;;;3.65;;
27113;SDS011;14648;49.730;8.614;2022-08-25T00:06:23;3.05;;;2.67;;
27113;SDS011;14648;49.730;8.614;2022-08-25T00:08:49;3.40;;;2.95;;
27113;SDS011;14648;49.730;8.614;2022-08-25T00:11:16;3.92;;;3.58;;
27113;SDS011;14648;49.730;8.614;2022-08-25T00:13:48;3.70;;;3.28;;
27113;SDS011;14648;49.730;8.614;2022-08-25T00:16:18;8.70;;;3.92;;
27113;SDS011;14648;49.730;8.614;2022-08-25T00:18:46;5.38;;;3.78;;
27113;SDS011;14648;49.730;8.614;2022-08-25T00:21:15;7.10;;;3.78;;
27113;SDS011;14648;49.730;8.614;2022-08-25T00:23:41;4.40;;;4.00;;
27113;SDS011;14648;49.730;8.614;2022-08-25T00:26:09;4.53;;;4.13;;
27113;SDS011;14648;49.730;8.614;2022-08-25T00:28:37;4.00;;;3.70;;
27113;SDS011;14648;49.730;8.614;2022-08-25T00:31:04;8.65;;;4.18;;
27113;SDS011;14648;49.730;8.614;2022-08-25T00:33:30;7.43;;;4.00;;
27113;SDS011;14648;49.730;8.614;2022-08-25T00:35:58;8.93;;;4.30;;
27113;SDS011;14648;49.730;8.614;2022-08-25T00:38:24;6.00;;;4.45;;
27113;SDS011;14648;49.730;8.614;2022-08-25T00:40:50;5.80;;;5.17;;
27113;SDS011;14648;49.730;8.614;2022-08-25T00:46:04;6.33;;;3.90;;
27113;SDS011;14648;49.730;8.614;2022-08-25T00:48:31;4.60;;;4.13;;
27113;SDS011;14648;49.730;8.614;2022-08-25T00:50:58;5.13;;;4.23;;
27113;SDS011;14648;49.730;8.614;2022-08-25T00:53:25;4.83;;;4.27;;
27113;SDS011;14648;49.730;8.614;2022-08-25T00:55:51;4.97;;;4.17;;
27113;SDS011;14648;49.730;8.614;2022-08-25T00:58:19;4.93;;;4.37;;
27113;SDS011;14648;49.730;8.614;2022-08-25T01:00:50;4.70;;;4.30;;
27113;SDS011;14648;49.730;8.614;2022-08-25T01:03:19;5.77;;;4.50;;
27113;SDS011;14648;49.730;8.614;2022-08-25T01:05:46;4.70;;;4.20;;
27113;SDS011;14648;49.730;8.614;2022-08-25T01:08:13;5.77;;;4.40;;
27113;SDS011;14648;49.730;8.614;2022-08-25T01:10:42;5.03;;;4.63;;
27113;SDS011;14648;49.730;8.614;2022-08-25T01:13:13;7.53;;;4.70;;
27113;SDS011;14648;49.730;8.614;2022-08-25T01:15:44;4.63;;;4.23;;
27113;SDS011;14648;49.730;8.614;2022-08-25T01:18:12;6.43;;;5.23;;
27113;SDS011;14648;49.730;8.614;2022-08-25T01:20:38;7.23;;;4.13;;
27113;SDS011;14648;49.730;8.614;2022-08-25T01:23:04;7.13;;;4.97;;
27113;SDS011;14648;49.730;8.614;2022-08-25T01:25:38;4.90;;;4.30;;
27113;SDS011;14648;49.730;8.614;2022-08-25T01:28:15;5.10;;;4.47;;
27113;SDS011;14648;49.730;8.614;2022-08-25T01:30:43;6.07;;;4.80;;
27113;SDS011;14648;49.730;8.614;2022-08-25T01:33:10;3.60;;;3.30;;
27113;SDS011;14648;49.730;8.614;2022-08-25T01:35:37;4.77;;;4.30;;
27113;SDS011;14648;49.730;8.614;2022-08-25T01:38:05;4.63;;;4.17;;
27113;SDS011;14648;49.730;8.614;2022-08-25T01:40:32;3.50;;;3.20;;
27113;SDS011;14648;49.730;8.614;2022-08-25T01:45:31;3.90;;;3.60;;
27113;SDS011;14648;49.730;8.614;2022-08-25T01:47:58;11.63;;;3.67;;
27113;SDS011;14648;49.730;8.614;2022-08-25T01:50:25;4.23;;;3.57;;
27113;SDS011;14648;49.730;8.614;2022-08-25T01:52:57;3.67;;;3.37;;
27113;SDS011;14648;49.730;8.614;2022-08-25T01:55:51;4.00;;;3.63;;
27113;SDS011;14648;49.730;8.614;2022-08-25T01:58:27;3.37;;;3.07;;
27113;SDS011;14648;49.730;8.614;2022-08-25T02:00:58;3.50;;;3.20;;
27113;SDS011;14648;49.730;8.614;2022-08-25T02:03:27;4.40;;;3.77;;
27113;SDS011;14648;49.730;8.614;2022-08-25T02:05:54;4.00;;;3.60;;
27113;SDS011;14648;49.730;8.614;2022-08-25T02:08:21;4.20;;;3.83;;
27113;SDS011;14648;49.730;8.614;2022-08-25T02:10:48;3.83;;;3.13;;
27113;SDS011;14648;49.730;8.614;2022-08-25T02:13:16;4.37;;;3.97;;
27113;SDS011;14648;49.730;8.614;2022-08-25T02:15:43;5.10;;;4.33;;
27113;SDS011;14648;49.730;8.614;2022-08-25T02:18:13;5.07;;;4.53;;
27113;SDS011;14648;49.730;8.614;2022-08-25T02:20:39;10.03;;;3.93;;
27113;SDS011;14648;49.730;8.614;2022-08-25T02:23:05;5.20;;;4.10;;
27113;SDS011;14648;49.730;8.614;2022-08-25T02:25:31;4.43;;;4.00;;
27113;SDS011;14648;49.730;8.614;2022-08-25T02:27:59;3.57;;;3.20;;
27113;SDS011;14648;49.730;8.614;2022-08-25T02:30:25;4.00;;;3.67;;
27113;SDS011;14648;49.730;8.614;2022-08-25T02:32:51;4.47;;;4.07;;
27113;SDS011;14648;49.730;8.614;2022-08-25T02:35:17;6.43;;;4.57;;
27113;SDS011;14648;49.730;8.614;2022-08-25T02:37:42;4.80;;;4.40;;
27113;SDS011;14648;49.730;8.614;2022-08-25T02:40:09;4.40;;;3.97;;
27113;SDS011;14648;49.730;8.614;2022-08-25T02:42:35;5.70;;;3.50;;
27113;SDS011;14648;49.730;8.614;2022-08-25T02:45:01;7.23;;;3.77;;
27113;SDS011;14648;49.730;8.614;2022-08-25T02:47:28;4.63;;;4.17;;
27113;SDS011;14648;49.730;8.614;2022-08-25T02:49:55;5.83;;;4.70;;
27113;SDS011;14648;49.730;8.614;2022-08-25T02:52:22;5.00;;;4.17;;
27113;SDS011;14648;49.730;8.614;2022-08-25T02:54:49;5.10;;;3.93;;
27113;SDS011;14648;49.730;8.614;2022-08-25T02:57:15;5.80;;;4.40;;
27113;SDS011;14648;49.730;8.614;2022-08-25T02:59:42;5.70;;;3.80;;
27113;SDS011;14648;49.730;8.614;2022-08-25T03:02:11;5.00;;;3.83;;
27113;SDS011;14648;49.730;8.614;2022-08-25T03:04:37;4.53;;;4.23;;
27113;SDS011;14648;49.730;8.614;2022-08-25T03:07:03;10.53;;;3.90;;
27113;SDS011;14648;49.730;8.614;2022-08-25T03:09:29;9.83;;;4.33;;
27113;SDS011;14648;49.730;8.614;2022-08-25T03:11:55;7.10;;;3.53;;
27113;SDS011;14648;49.730;8.614;2022-08-25T03:14:21;7.10;;;3.40;;
27113;SDS011;14648;49.730;8.614;2022-08-25T03:16:47;6.10;;;4.60;;
27113;SDS011;14648;49.730;8.614;2022-08-25T03:19:13;7.73;;;4.23;;
27113;SDS011;14648;49.730;8.614;2022-08-25T03:21:39;7.97;;;3.80;;
27113;SDS011;14648;49.730;8.614;2022-08-25T03:24:05;5.17;;;3.97;;
27113;SDS011;14648;49.730;8.614;2022-08-25T03:26:31;5.50;;;3.60;;
27113;SDS011;14648;49.730;8.614;2022-08-25T03:29:15;4.27;;;3.87;;
27113;SDS011;14648;49.730;8.614;2022-08-25T03:31:42;5.70;;;4.00;;
27113;SDS011;14648;49.730;8.614;2022-08-25T03:34:12;4.40;;;4.00;;
27113;SDS011;14648;49.730;8.614;2022-08-25T03:36:43;6.10;;;4.20;;
27113;SDS011;14648;49.730;8.614;2022-08-25T03:39:11;4.97;;;4.47;;
27113;SDS011;14648;49.730;8.614;2022-08-25T03:41:38;4.53;;;4.13;;
27113;SDS011;14648;49.730;8.614;2022-08-25T03:44:04;5.47;;;4.47;;
27113;SDS011;14648;49.730;8.614;2022-08-25T03:46:33;7.00;;;4.53;;
27113;SDS011;14648;49.730;8.614;2022-08-25T03:49:05;8.53;;;4.30;;
27113;SDS011;14648;49.730;8.614;2022-08-25T03:51:34;8.43;;;4.97;;
27113;SDS011;14648;49.730;8.614;2022-08-25T03:54:04;5.20;;;3.80;;
27113;SDS011;14648;49.730;8.614;2022-08-25T03:56:32;4.47;;;3.60;;
27113;SDS011;14648;49.730;8.614;2022-08-25T03:58:58;8.50;;;4.23;;
27113;SDS011;14648;49.730;8.614;2022-08-25T04:01:24;7.30;;;4.40;;
27113;SDS011;14648;49.730;8.614;2022-08-25T04:03:50;14.03;;;5.30;;
27113;SDS011;14648;49.730;8.614;2022-08-25T04:06:17;15.67;;;6.60;;
27113;SDS011;14648;49.730;8.614;2022-08-25T04:08:43;16.03;;;6.10;;
27113;SDS011;14648;49.730;8.614;2022-08-25T04:11:11;15.77;;;5.23;;
27113;SDS011;14648;49.730;8.614;2022-08-25T04:13:43;21.90;;;7.20;;
27113;SDS011;14648;49.730;8.614;2022-08-25T04:16:11;23.73;;;5.90;;
27113;SDS011;14648;49.730;8.614;2022-08-25T04:18:43;16.10;;;7.00;;
27113;SDS011;14648;49.730;8.614;2022-08-25T04:21:11;40.70;;;7.30;;
27113;SDS011;14648;49.730;8.614;2022-08-25T04:23:39;24.57;;;7.60;;
27113;SDS011;14648;49.730;8.614;2022-08-25T04:26:07;16.20;;;6.83;;
27113;SDS011;14648;49.730;8.614;2022-08-25T04:28:38;13.70;;;5.50;;
27113;SDS011;14648;49.730;8.614;2022-08-25T04:31:08;21.73;;;6.83;;
27113;SDS011;14648;49.730;8.614;2022-08-25T04:33:36;11.13;;;5.30;;
27113;SDS011;14648;49.730;8.614;2022-08-25T04:36:03;5.47;;;4.90;;
27113;SDS011;14648;49.730;8.614;2022-08-25T04:38:30;8.33;;;5.13;;
27113;SDS011;14648;49.730;8.614;2022-08-25T04:40:57;6.60;;;5.07;;
27113;SDS011;14648;49.730;8.614;2022-08-25T04:43:28;6.43;;;5.20;;
27113;SDS011;14648;49.730;8.614;2022-08-25T04:45:55;7.57;;;5.60;;
27113;SDS011;14648;49.730;8.614;2022-08-25T04:48:22;14.23;;;5.03;;
27113;SDS011;14648;49.730;8.614;2022-08-25T04:50:49;7.50;;;5.40;;
27113;SDS011;14648;49.730;8.614;2022-08-25T04:53:15;7.20;;;5.20;;
27113;SDS011;14648;49.730;8.614;2022-08-25T04:55:44;5.20;;;4.70;;
27113;SDS011;14648;49.730;8.614;2022-08-25T04:58:12;5.17;;;4.03;;
27113;SDS011;14648;49.730;8.614;2022-08-25T05:00:39;7.30;;;5.60;;
27113;SDS011;14648;49.730;8.614;2022-08-25T05:03:06;10.63;;;5.27;;
27113;SDS011;14648;49.730;8.614;2022-08-25T05:05:34;7.43;;;5.00;;
27113;SDS011;14648;49.730;8.614;2022-08-25T05:08:02;6.27;;;4.90;;
27113;SDS011;14648;49.730;8.614;2022-08-25T05:10:31;8.13;;;5.43;;
27113;SDS011;14648;49.730;8.614;2022-08-25T05:12:58;6.50;;;5.03;;
27113;SDS011;14648;49.730;8.614;2022-08-25T05:15:26;12.97;;;4.80;;
27113;SDS011;14648;49.730;8.614;2022-08-25T05:18:11;6.13;;;5.40;;
27113;SDS011;14648;49.730;8.614;2022-08-25T05:20:37;6.80;;;5.27;;
27113;SDS011;14648;49.730;8.614;2022-08-25T05:23:05;8.10;;;5.40;;
27113;SDS011;14648;49.730;8.614;2022-08-25T05:25:31;7.73;;;5.33;;
27113;SDS011;14648;49.730;8.614;2022-08-25T05:27:56;10.57;;;5.77;;
27113;SDS011;14648;49.730;8.614;2022-08-25T05:30:22;7.37;;;5.87;;
27113;SDS011;14648;49.730;8.614;2022-08-25T05:32:48;9.60;;;6.47;;
27113;SDS011;14648;49.730;8.614;2022-08-25T05:35:14;8.27;;;6.60;;
27113;SDS011;14648;49.730;8.614;2022-08-25T05:37:40;10.63;;;6.60;;
27113;SDS011;14648;49.730;8.614;2022-08-25T05:40:07;9.50;;;6.40;;
27113;SDS011;14648;49.730;8.614;2022-08-25T05:42:34;7.90;;;5.83;;
27113;SDS011;14648;49.730;8.614;2022-08-25T05:45:01;11.07;;;7.27;;
27113;SDS011;14648;49.730;8.614;2022-08-25T05:47:28;8.03;;;6.00;;
27113;SDS011;14648;49.730;8.614;2022-08-25T05:49:54;11.07;;;7.17;;
27113;SDS011;14648;49.730;8.614;2022-08-25T05:52:20;11.40;;;6.83;;
27113;SDS011;14648;49.730;8.614;2022-08-25T05:54:46;10.80;;;6.23;;
27113;SDS011;14648;49.730;8.614;2022-08-25T05:57:12;10.60;;;7.10;;
27113;SDS011;14648;49.730;8.614;2022-08-25T05:59:38;10.90;;;7.53;;
27113;SDS011;14648;49.730;8.614;2022-08-25T06:02:04;10.53;;;6.77;;
27113;SDS011;14648;49.730;8.614;2022-08-25T06:04:48;7.90;;;7.20;;
27113;SDS011;14648;49.730;8.614;2022-08-25T06:07:13;8.37;;;7.30;;
27113;SDS011;14648;49.730;8.614;2022-08-25T06:09:40;8.23;;;6.50;;
27113;SDS011;14648;49.730;8.614;2022-08-25T06:12:06;7.60;;;6.80;;
27113;SDS011;14648;49.730;8.614;2022-08-25T06:14:32;11.90;;;6.90;;
27113;SDS011;14648;49.730;8.614;2022-08-25T06:16:59;9.63;;;6.97;;
27113;SDS011;14648;49.730;8.614;2022-08-25T06:19:25;10.17;;;7.80;;
27113;SDS011;14648;49.730;8.614;2022-08-25T06:21:54;7.90;;;7.10;;
27113;SDS011;14648;49.730;8.614;2022-08-25T06:24:22;11.83;;;7.00;;
27113;SDS011;14648;49.730;8.614;2022-08-25T06:26:49;10.80;;;6.67;;
27113;SDS011;14648;49.730;8.614;2022-08-25T06:29:15;7.57;;;6.87;;
27113;SDS011;14648;49.730;8.614;2022-08-25T06:31:41;8.00;;;6.80;;
27113;SDS011;14648;49.730;8.614;2022-08-25T06:34:07;10.63;;;6.50;;
27113;SDS011;14648;49.730;8.614;2022-08-25T06:36:34;7.13;;;6.43;;
27113;SDS011;14648;49.730;8.614;2022-08-25T06:38:59;9.83;;;6.60;;
27113;SDS011;14648;49.730;8.614;2022-08-25T06:41:25;9.70;;;6.93;;
27113;SDS011;14648;49.730;8.614;2022-08-25T06:43:51;7.93;;;7.10;;
27113;SDS011;14648;49.730;8.614;2022-08-25T06:46:21;9.13;;;6.27;;
27113;SDS011;14648;49.730;8.614;2022-08-25T06:48:51;7.67;;;6.60;;
27113;SDS011;14648;49.730;8.614;2022-08-25T06:51:21;7.17;;;6.47;;
27113;SDS011;14648;49.730;8.614;2022-08-25T06:53:51;7.50;;;6.53;;
27113;SDS011;14648;49.730;8.614;2022-08-25T06:56:18;11.23;;;6.80;;
27113;SDS011;14648;49.730;8.614;2022-08-25T06:58:46;7.53;;;6.83;;
27113;SDS011;14648;49.730;8.614;2022-08-25T07:01:20;7.37;;;6.70;;
27113;SDS011;14648;49.730;8.614;2022-08-25T07:03:50;6.70;;;6.00;;
27113;SDS011;14648;49.730;8.614;2022-08-25T07:06:21;8.70;;;7.00;;
27113;SDS011;14648;49.730;8.614;2022-08-25T07:08:49;6.87;;;6.13;;
27113;SDS011;14648;49.730;8.614;2022-08-25T07:11:15;6.93;;;6.27;;
27113;SDS011;14648;49.730;8.614;2022-08-25T07:13:41;7.70;;;6.30;;
27113;SDS011;14648;49.730;8.614;2022-08-25T07:16:06;6.47;;;5.60;;
27113;SDS011;14648;49.730;8.614;2022-08-25T07:18:33;7.00;;;6.30;;
27113;SDS011;14648;49.730;8.614;2022-08-25T07:20:59;6.70;;;5.70;;
27113;SDS011;14648;49.730;8.614;2022-08-25T07:23:25;5.93;;;5.43;;
27113;SDS011;14648;49.730;8.614;2022-08-25T07:25:52;8.27;;;6.33;;
27113;SDS011;14648;49.730;8.614;2022-08-25T07:28:20;8.10;;;6.73;;
27113;SDS011;14648;49.730;8.614;2022-08-25T07:30:47;6.50;;;5.83;;
27113;SDS011;14648;49.730;8.614;2022-08-25T07:33:18;6.60;;;6.00;;
27113;SDS011;14648;49.730;8.614;2022-08-25T07:35:43;10.50;;;6.50;;
27113;SDS011;14648;49.730;8.614;2022-08-25T07:38:09;6.37;;;5.80;;
27113;SDS011;14648;49.730;8.614;2022-08-25T07:40:35;14.87;;;6.60;;
27113;SDS011;14648;49.730;8.614;2022-08-25T07:43:03;8.53;;;6.03;;
27113;SDS011;14648;49.730;8.614;2022-08-25T07:45:34;6.63;;;6.03;;
27113;SDS011;14648;49.730;8.614;2022-08-25T07:48:07;6.53;;;5.40;;
27113;SDS011;14648;49.730;8.614;2022-08-25T07:50:36;11.80;;;6.10;;
27113;SDS011;14648;49.730;8.614;2022-08-25T07:53:06;7.40;;;6.43;;
27113;SDS011;14648;49.730;8.614;2022-08-25T07:55:34;5.47;;;4.97;;
27113;SDS011;14648;49.730;8.614;2022-08-25T07:58:01;5.80;;;5.00;;
27113;SDS011;14648;49.730;8.614;2022-08-25T08:00:29;6.40;;;5.80;;
27113;SDS011;14648;49.730;8.614;2022-08-25T08:02:58;7.43;;;6.17;;
27113;SDS011;14648;49.730;8.614;2022-08-25T08:05:25;6.17;;;5.57;;
27113;SDS011;14648;49.730;8.614;2022-08-25T08:07:53;5.30;;;4.83;;
27113;SDS011;14648;49.730;8.614;2022-08-25T08:10:19;10.30;;;5.10;;
27113;SDS011;14648;49.730;8.614;2022-08-25T08:12:46;6.50;;;5.57;;
27113;SDS011;14648;49.730;8.614;2022-08-25T08:15:12;5.57;;;5.07;;
27113;SDS011;14648;49.730;8.614;2022-08-25T08:17:38;7.53;;;4.97;;
27113;SDS011;14648;49.730;8.614;2022-08-25T08:20:04;5.20;;;4.80;;
27113;SDS011;14648;49.730;8.614;2022-08-25T08:22:33;5.38;;;4.88;;
27113;SDS011;14648;49.730;8.614;2022-08-25T08:25:01;5.80;;;5.30;;
27113;SDS011;14648;49.730;8.614;2022-08-25T08:27:27;5.43;;;5.00;;
27113;SDS011;14648;49.730;8.614;2022-08-25T08:29:53;6.28;;;5.13;;
27113;SDS011;14648;49.730;8.614;2022-08-25T08:32:19;5.00;;;4.50;;
27113;SDS011;14648;49.730;8.614;2022-08-25T08:34:45;4.68;;;4.28;;
27113;SDS011;14648;49.730;8.614;2022-08-25T08:37:11;5.53;;;5.03;;
27113;SDS011;14648;49.730;8.614;2022-08-25T08:39:38;5.38;;;4.57;;
27113;SDS011;14648;49.730;8.614;2022-08-25T08:42:18;6.00;;;5.50;;
27113;SDS011;14648;49.730;8.614;2022-08-25T08:45:05;7.57;;;4.68;;
27113;SDS011;14648;49.730;8.614;2022-08-25T08:48:08;6.13;;;4.68;;
27113;SDS011;14648;49.730;8.614;2022-08-25T08:50:59;5.53;;;4.95;;
27113;SDS011;14648;49.730;8.614;2022-08-25T08:54:06;8.05;;;4.88;;
27113;SDS011;14648;49.730;8.614;2022-08-25T08:56:43;5.55;;;4.45;;
27113;SDS011;14648;49.730;8.614;2022-08-25T08:59:22;4.70;;;4.30;;
27113;SDS011;14648;49.730;8.614;2022-08-25T09:01:53;5.68;;;4.22;;
27113;SDS011;14648;49.730;8.614;2022-08-25T09:06:55;5.40;;;4.90;;
27113;SDS011;14648;49.730;8.614;2022-08-25T09:09:26;5.35;;;4.75;;
27113;SDS011;14648;49.730;8.614;2022-08-25T09:18:23;7.45;;;5.68;;
27113;SDS011;14648;49.730;8.614;2022-08-25T09:26:35;7.47;;;5.30;;
27113;SDS011;14648;49.730;8.614;2022-08-25T09:29:14;4.88;;;4.45;;
27113;SDS011;14648;49.730;8.614;2022-08-25T09:31:48;7.75;;;5.10;;
27113;SDS011;14648;49.730;8.614;2022-08-25T09:34:18;5.32;;;4.18;;
27113;SDS011;14648;49.730;8.614;2022-08-25T09:36:48;5.97;;;4.72;;
27113;SDS011;14648;49.730;8.614;2022-08-25T09:39:17;6.38;;;4.90;;
27113;SDS011;14648;49.730;8.614;2022-08-25T09:41:49;5.25;;;4.50;;
27113;SDS011;14648;49.730;8.614;2022-08-25T09:47:01;4.68;;;4.38;;
27113;SDS011;14648;49.730;8.614;2022-08-25T09:52:21;4.75;;;4.35;;
27113;SDS011;14648;49.730;8.614;2022-08-25T09:54:52;5.28;;;4.88;;
27113;SDS011;14648;49.730;8.614;2022-08-25T09:57:30;3.95;;;3.72;;
27113;SDS011;14648;49.730;8.614;2022-08-25T10:00:07;3.95;;;3.58;;
27113;SDS011;14648;49.730;8.614;2022-08-25T10:02:59;3.65;;;3.45;;
27113;SDS011;14648;49.730;8.614;2022-08-25T10:05:56;4.47;;;4.07;;
27113;SDS011;14648;49.730;8.614;2022-08-25T10:11:10;6.50;;;4.78;;
27113;SDS011;14648;49.730;8.614;2022-08-25T10:13:43;3.78;;;3.58;;
27113;SDS011;14648;49.730;8.614;2022-08-25T10:16:26;3.13;;;2.92;;
27113;SDS011;14648;49.730;8.614;2022-08-25T10:19:00;4.38;;;3.70;;
27113;SDS011;14648;49.730;8.614;2022-08-25T10:21:36;4.55;;;3.53;;
27113;SDS011;14648;49.730;8.614;2022-08-25T10:24:04;4.53;;;4.13;;
27113;SDS011;14648;49.730;8.614;2022-08-25T10:29:22;3.15;;;2.95;;
27113;SDS011;14648;49.730;8.614;2022-08-25T10:32:15;4.95;;;4.60;;
27113;SDS011;14648;49.730;8.614;2022-08-25T10:34:52;3.90;;;3.70;;
27113;SDS011;14648;49.730;8.614;2022-08-25T10:42:53;3.83;;;3.50;;
27113;SDS011;14648;49.730;8.614;2022-08-25T10:45:52;3.83;;;3.33;;
27113;SDS011;14648;49.730;8.614;2022-08-25T10:51:47;5.28;;;3.63;;
27113;SDS011;14648;49.730;8.614;2022-08-25T10:54:31;4.80;;;4.30;;
27113;SDS011;14648;49.730;8.614;2022-08-25T10:57:22;4.28;;;3.88;;
27113;SDS011;14648;49.730;8.614;2022-08-25T11:00:15;4.50;;;4.10;;
27113;SDS011;14648;49.730;8.614;2022-08-25T11:02:51;3.65;;;3.45;;
27113;SDS011;14648;49.730;8.614;2022-08-25T11:05:51;4.07;;;3.85;;
27113;SDS011;14648;49.730;8.614;2022-08-25T11:08:30;3.88;;;3.67;;
27113;SDS011;14648;49.730;8.614;2022-08-25T11:11:15;3.65;;;3.45;;
27113;SDS011;14648;49.730;8.614;2022-08-25T11:13:54;4.40;;;4.10;;
27113;SDS011;14648;49.730;8.614;2022-08-25T11:17:09;9.05;;;4.00;;
27113;SDS011;14648;49.730;8.614;2022-08-25T11:19:51;4.32;;;4.00;;
27113;SDS011;14648;49.730;8.614;2022-08-25T11:22:23;4.28;;;3.78;;
27113;SDS011;14648;49.730;8.614;2022-08-25T11:25:01;4.47;;;4.13;;
27113;SDS011;14648;49.730;8.614;2022-08-25T11:28:02;4.07;;;3.80;;
27113;SDS011;14648;49.730;8.614;2022-08-25T11:30:39;4.72;;;4.10;;
27113;SDS011;14648;49.730;8.614;2022-08-25T11:33:10;6.00;;;3.75;;
27113;SDS011;14648;49.730;8.614;2022-08-25T11:35:42;3.70;;;3.50;;
27113;SDS011;14648;49.730;8.614;2022-08-25T11:55:52;4.72;;;4.10;;
27113;SDS011;14648;49.730;8.614;2022-08-25T12:00:57;5.15;;;3.75;;
27113;SDS011;14648;49.730;8.614;2022-08-25T12:19:46;5.13;;;4.38;;
27113;SDS011;14648;49.730;8.614;2022-08-25T12:24:59;4.40;;;4.00;;
27113;SDS011;14648;49.730;8.614;2022-08-25T12:27:57;4.22;;;4.03;;
27113;SDS011;14648;49.730;8.614;2022-08-25T12:30:48;6.18;;;4.63;;
27113;SDS011;14648;49.730;8.614;2022-08-25T12:36:09;4.65;;;4.22;;
27113;SDS011;14648;49.730;8.614;2022-08-25T12:38:50;5.05;;;4.65;;
27113;SDS011;14648;49.730;8.614;2022-08-25T12:41:18;3.92;;;3.58;;
27113;SDS011;14648;49.730;8.614;2022-08-25T12:43:49;4.30;;;4.00;;
27113;SDS011;14648;49.730;8.614;2022-08-25T12:51:55;4.57;;;4.13;;
27113;SDS011;14648;49.730;8.614;2022-08-25T12:54:40;4.07;;;3.88;;
27113;SDS011;14648;49.730;8.614;2022-08-25T13:09:23;4.45;;;4.07;;
27113;SDS011;14648;49.730;8.614;2022-08-25T13:15:31;4.15;;;3.85;;
27113;SDS011;14648;49.730;8.614;2022-08-25T13:20:45;4.47;;;3.30;;
27113;SDS011;14648;49.730;8.614;2022-08-25T13:23:15;3.80;;;3.50;;
27113;SDS011;14648;49.730;8.614;2022-08-25T13:25:50;3.63;;;3.40;;
27113;SDS011;14648;49.730;8.614;2022-08-25T13:28:28;3.50;;;3.20;;
27113;SDS011;14648;49.730;8.614;2022-08-25T13:30:59;3.60;;;3.35;;
27113;SDS011;14648;49.730;8.614;2022-08-25T13:33:32;4.10;;;3.72;;
27113;SDS011;14648;49.730;8.614;2022-08-25T13:36:01;4.00;;;3.60;;
27113;SDS011;14648;49.730;8.614;2022-08-25T13:38:48;4.07;;;3.78;;
27113;SDS011;14648;49.730;8.614;2022-08-25T13:41:21;3.15;;;2.97;;
27113;SDS011;14648;49.730;8.614;2022-08-25T13:43:50;3.17;;;2.97;;
27113;SDS011;14648;49.730;8.614;2022-08-25T13:46:19;3.30;;;3.10;;
27113;SDS011;14648;49.730;8.614;2022-08-25T13:48:46;3.85;;;3.60;;
27113;SDS011;14648;49.730;8.614;2022-08-25T13:51:20;3.40;;;3.10;;
27113;SDS011;14648;49.730;8.614;2022-08-25T13:53:49;2.63;;;2.47;;
27113;SDS011;14648;49.730;8.614;2022-08-25T13:56:29;2.53;;;2.42;;
27113;SDS011;14648;49.730;8.614;2022-08-25T13:59:00;3.75;;;3.42;;
27113;SDS011;14648;49.730;8.614;2022-08-25T14:01:30;3.17;;;3.03;;
27113;SDS011;14648;49.730;8.614;2022-08-25T14:09:52;6.30;;;3.03;;
27113;SDS011;14648;49.730;8.614;2022-08-25T14:12:25;3.25;;;3.05;;
27113;SDS011;14648;49.730;8.614;2022-08-25T14:17:47;2.83;;;2.63;;
27113;SDS011;14648;49.730;8.614;2022-08-25T14:20:51;6.10;;;3.00;;
27113;SDS011;14648;49.730;8.614;2022-08-25T14:23:23;4.43;;;3.17;;
27113;SDS011;14648;49.730;8.614;2022-08-25T14:25:52;4.82;;;3.20;;
27113;SDS011;14648;49.730;8.614;2022-08-25T14:28:24;3.40;;;3.10;;
27113;SDS011;14648;49.730;8.614;2022-08-25T14:30:57;2.72;;;2.53;;
27113;SDS011;14648;49.730;8.614;2022-08-25T14:33:27;3.72;;;3.40;;
27113;SDS011;14648;49.730;8.614;2022-08-25T14:35:58;3.58;;;3.20;;
27113;SDS011;14648;49.730;8.614;2022-08-25T14:38:27;6.07;;;2.88;;
27113;SDS011;14648;49.730;8.614;2022-08-25T14:40:53;2.92;;;2.72;;
27113;SDS011;14648;49.730;8.614;2022-08-25T14:43:19;2.70;;;2.50;;
27113;SDS011;14648;49.730;8.614;2022-08-25T14:45:45;3.67;;;3.47;;
27113;SDS011;14648;49.730;8.614;2022-08-25T14:48:16;2.83;;;2.72;;
27113;SDS011;14648;49.730;8.614;2022-08-25T14:50:55;3.33;;;3.13;;
27113;SDS011;14648;49.730;8.614;2022-08-25T14:53:23;3.10;;;3.00;;
27113;SDS011;14648;49.730;8.614;2022-08-25T14:55:49;2.85;;;2.70;;
27113;SDS011;14648;49.730;8.614;2022-08-25T14:58:18;4.40;;;3.20;;
27113;SDS011;14648;49.730;8.614;2022-08-25T15:00:45;2.50;;;2.40;;
27113;SDS011;14648;49.730;8.614;2022-08-25T15:03:12;3.20;;;3.00;;
27113;SDS011;14648;49.730;8.614;2022-08-25T15:05:44;2.97;;;2.88;;
27113;SDS011;14648;49.730;8.614;2022-08-25T15:08:09;3.10;;;2.63;;
27113;SDS011;14648;49.730;8.614;2022-08-25T15:10:54;3.58;;;3.28;;
27113;SDS011;14648;49.730;8.614;2022-08-25T15:13:20;3.17;;;2.97;;
27113;SDS011;14648;49.730;8.614;2022-08-25T15:15:47;7.75;;;3.17;;
27113;SDS011;14648;49.730;8.614;2022-08-25T15:18:14;3.05;;;2.90;;
27113;SDS011;14648;49.730;8.614;2022-08-25T15:20:41;3.00;;;2.65;;
27113;SDS011;14648;49.730;8.614;2022-08-25T15:23:07;2.90;;;2.70;;
27113;SDS011;14648;49.730;8.614;2022-08-25T15:25:33;3.47;;;3.20;;
27113;SDS011;14648;49.730;8.614;2022-08-25T15:28:02;3.35;;;3.05;;
27113;SDS011;14648;49.730;8.614;2022-08-25T15:30:29;4.43;;;3.15;;
27113;SDS011;14648;49.730;8.614;2022-08-25T15:32:55;3.65;;;3.25;;
27113;SDS011;14648;49.730;8.614;2022-08-25T15:35:20;3.78;;;3.50;;
27113;SDS011;14648;49.730;8.614;2022-08-25T15:37:47;3.72;;;3.30;;
27113;SDS011;14648;49.730;8.614;2022-08-25T15:40:13;3.80;;;3.50;;
27113;SDS011;14648;49.730;8.614;2022-08-25T15:42:40;3.28;;;3.15;;
27113;SDS011;14648;49.730;8.614;2022-08-25T15:45:06;4.45;;;3.20;;
27113;SDS011;14648;49.730;8.614;2022-08-25T15:47:33;2.88;;;2.67;;
27113;SDS011;14648;49.730;8.614;2022-08-25T15:50:01;3.00;;;2.85;;
27113;SDS011;14648;49.730;8.614;2022-08-25T15:52:34;3.40;;;3.10;;
27113;SDS011;14648;49.730;8.614;2022-08-25T15:55:00;3.72;;;3.42;;
27113;SDS011;14648;49.730;8.614;2022-08-25T15:57:26;4.68;;;3.33;;
27113;SDS011;14648;49.730;8.614;2022-08-25T15:59:52;6.95;;;3.38;;
27113;SDS011;14648;49.730;8.614;2022-08-25T16:02:17;3.20;;;2.90;;
27113;SDS011;14648;49.730;8.614;2022-08-25T16:04:44;3.67;;;3.08;;
27113;SDS011;14648;49.730;8.614;2022-08-25T16:07:10;3.20;;;2.95;;
27113;SDS011;14648;49.730;8.614;2022-08-25T16:09:35;3.50;;;3.30;;
27113;SDS011;14648;49.730;8.614;2022-08-25T16:12:01;3.53;;;3.30;;
27113;SDS011;14648;49.730;8.614;2022-08-25T16:14:27;4.50;;;3.58;;
27113;SDS011;14648;49.730;8.614;2022-08-25T16:16:53;5.63;;;3.20;;
27113;SDS011;14648;49.730;8.614;2022-08-25T16:19:19;3.60;;;3.35;;
27113;SDS011;14648;49.730;8.614;2022-08-25T16:21:45;2.88;;;2.78;;
27113;SDS011;14648;49.730;8.614;2022-08-25T16:24:10;3.15;;;2.95;;
27113;SDS011;14648;49.730;8.614;2022-08-25T16:26:38;4.38;;;3.97;;
27113;SDS011;14648;49.730;8.614;2022-08-25T16:29:06;6.15;;;3.50;;
27113;SDS011;14648;49.730;8.614;2022-08-25T16:31:34;3.95;;;3.65;;
27113;SDS011;14648;49.730;8.614;2022-08-25T16:34:00;4.03;;;3.65;;
27113;SDS011;14648;49.730;8.614;2022-08-25T16:36:26;3.75;;;3.45;;
27113;SDS011;14648;49.730;8.614;2022-08-25T16:38:52;4.25;;;4.05;;
27113;SDS011;14648;49.730;8.614;2022-08-25T16:41:21;9.10;;;3.70;;
27113;SDS011;14648;49.730;8.614;2022-08-25T16:43:51;6.00;;;3.70;;
27113;SDS011;14648;49.730;8.614;2022-08-25T16:46:19;3.78;;;3.47;;
27113;SDS011;14648;49.730;8.614;2022-08-25T16:48:47;4.13;;;3.53;;
27113;SDS011;14648;49.730;8.614;2022-08-25T16:51:15;4.65;;;4.25;;
27113;SDS011;14648;49.730;8.614;2022-08-25T16:53:45;3.85;;;3.65;;
27113;SDS011;14648;49.730;8.614;2022-08-25T16:56:31;4.15;;;3.72;;
27113;SDS011;14648;49.730;8.614;2022-08-25T16:59:00;4.75;;;3.75;;